Bearcreek, MT

10:32 AM MDT on September 18, 2014 (GMT -0600)
Old Town | Change Station
CLOSE
Current Station
Personal Weather Station
Location: Red Lodge, MT
Elevation: 5594 ft
Nearby Weather Stations

Elev 5594 ft 45.18 °N, 109.25 °W | Updated 59 seconds ago

Overcast
Overcast
63.1 °F
Feels Like 63.1 °F
N
1.1
Wind Variable Wind from WNW

Today
High -- | Low -- °F
--% Chance of Precip.
Yesterday
High -- | Low -- °F
Precip. -- in
6:58 AM 7:21 PM
Waning Crescent, 26% visible
Pressure 29.78 in
Visibility 10.0 miles
Clouds Mostly Cloudy 6500 ft
Mostly Cloudy 11000 ft
Overcast 20000 ft
Dew Point 48 °F
Humidity 59%
Rainfall 0.00 in
Snow Depth 0 in , 0 in , 0 in
UV 1 out of 12
Pollen 6.10 out of 12
Air Quality Not available.
Flu Activity Not available.
METAR KBIL 181553Z 26016G26KT 10SM -RA BKN065 BKN110 OVC200 21/07 A2986 RMK AO2 PK WND 26026/1542 RAB24 SLP083 P0000 T02110072

More Conditions Fewer Conditions

Pressure 29.78 in
Visibility 10.0 miles
Clouds Mostly Cloudy 6500 ft
Mostly Cloudy 11000 ft
Overcast 20000 ft
Dew Point 48 °F
Humidity 59%
Rainfall 0.00 in
Snow Depth 0 in , 0 in , 0 in
UV 1 out of 12
Pollen 6.10 out of 12
Air Quality Not available.
Flu Activity Not available.
METAR KBIL 181553Z 26016G26KT 10SM -RA BKN065 BKN110 OVC200 21/07 A2986 RMK AO2 PK WND 26026/1542 RAB24 SLP083 P0000 T02110072

More Conditions Fewer Conditions

10-Day Weather Forecast

Almanac

Astronomy

Sep. 18, 2014 Rise Set
Actual Time 6:58 AM MDT 7:21 PM MDT
Civil Twilight 6:29 AM MDT 7:51 PM MDT
Nautical Twilight 5:54 AM MDT 8:25 PM MDT
Astronomical Twilight 5:18 AM MDT 9:01 PM MDT
Moon 1:43 AM MDT 4:24 PM MDT
Length of Visible Light 13h 21m
Length of Day
12h 22m
Tomorrow will be 3m 7s shorter.
Waning Crescent, 26% of the Moon is Illuminated
Today
Waning Crescent
Sep 24
New
Oct 1
First Quarter
Oct 8
Full
Oct 15
Last Quarter

Today's Extremes

State Highs State Lows

Community

WunderPhotos

Upload Photos

1,754,394 photos uploaded!

Nearby

Snow Depth

Station Depth Elevation
Shower Falls 0 in 8100 ft
Twelvemile Creek 0 in 5600 ft
Monument Peak 0 in 8850 ft
Nez Perce Camp 0 in 5650 ft
Fisher Creek 1 in 9100 ft

Earthquake Activity

City Distance Mag. Time & Date
No recent earthquake activity has been reported nearby.
Minimum magnitude displayed is 2.5.

Coastal Water Temperatures

Place Temperature
No Stations Reporting

Nearby Weather Stations